Time;durP1;ratioP1;P1;durP2;ratioP2;P2;SDS_P1;SDS_P2;PMS_P1;PMS_P2;Temp;Humidity;BMP_temperature;BMP_pressure;BME280_temperature;BME280_humidity;BME280_pressure;Samples;Min_cycle;Max_cycle;Signal;HPM_P1;HPM_P2
2021/07/30 00:00:11;;;;;;;;;9.50;8.00;;;;;21.05;49.85;100743.19;5057836;28;46113;-69
2021/07/30 00:02:37;;;;;;;;;8.50;7.00;;;;;21.03;49.30;100737.16;5060212;28;45241;-70
2021/07/30 00:05:02;;;;;;;;;8.00;7.75;;;;;21.00;49.61;100738.22;5060090;28;45249;-70
2021/07/30 00:07:28;;;;;;;;;8.00;5.25;;;;;20.99;49.28;100741.81;5059855;28;45370;-69
2021/07/30 00:09:53;;;;;;;;;6.00;4.75;;;;;20.95;49.17;100730.63;5072919;28;46295;-69
2021/07/30 00:12:19;;;;;;;;;7.00;6.00;;;;;20.97;49.28;100738.44;5060153;28;45252;-69
2021/07/30 00:14:44;;;;;;;;;6.00;6.00;;;;;20.98;49.63;100734.84;5059885;28;45256;-69
2021/07/30 00:17:09;;;;;;;;;7.00;5.75;;;;;20.96;50.01;100734.09;5059855;28;45591;-69
2021/07/30 00:19:35;;;;;;;;;9.00;8.00;;;;;20.95;50.71;100727.97;5059677;28;45330;-69
2021/07/30 00:22:00;;;;;;;;;12.00;7.50;;;;;20.96;50.65;100731.47;5059808;28;45423;-69
2021/07/30 00:24:25;;;;;;;;;10.00;10.00;;;;;20.89;51.97;100715.22;5059717;28;45540;-69
2021/07/30 00:26:51;;;;;;;;;11.00;10.25;;;;;20.89;51.43;100728.41;5059778;28;45284;-69
2021/07/30 00:29:17;;;;;;;;;10.50;7.75;;;;;20.88;51.68;100718.81;5059516;28;46095;-70
2021/07/30 00:31:42;;;;;;;;;9.50;9.00;;;;;20.86;51.68;100730.44;5062428;28;45408;-69
2021/07/30 00:34:08;;;;;;;;;14.00;11.00;;;;;20.85;51.96;100723.47;5063473;28;45936;-69
2021/07/30 00:36:33;;;;;;;;;11.75;10.50;;;;;20.81;51.61;100717.53;5063128;28;45258;-69
2021/07/30 00:38:59;;;;;;;;;9.50;8.75;;;;;20.78;51.92;100715.09;5063094;28;45310;-69
2021/07/30 00:41:24;;;;;;;;;10.00;8.50;;;;;20.79;51.92;100708.03;5063318;28;45514;-69
2021/07/30 00:43:49;;;;;;;;;7.25;7.25;;;;;20.77;51.60;100715.22;5063276;28;45882;-70
2021/07/30 00:46:15;;;;;;;;;8.75;8.50;;;;;20.72;51.46;100706.78;5063211;28;45507;-69
2021/07/30 00:48:42;;;;;;;;;8.75;5.25;;;;;20.70;51.94;100709.53;5063150;28;46114;-70
2021/07/30 00:51:07;;;;;;;;;7.75;7.50;;;;;20.68;51.53;100711.44;5062903;28;45374;-70
2021/07/30 00:53:34;;;;;;;;;8.00;7.75;;;;;20.66;51.95;100705.41;5063068;28;45224;-70
2021/07/30 00:55:59;;;;;;;;;10.00;9.00;;;;;20.64;51.73;100702.03;5062970;28;45679;-70
2021/07/30 00:58:27;;;;;;;;;9.00;8.50;;;;;20.62;51.84;100696.00;5054629;28;46597;-71
2021/07/30 01:00:53;;;;;;;;;7.25;7.25;;;;;20.62;52.34;100706.56;5061542;28;45333;-70
2021/07/30 01:03:19;;;;;;;;;7.75;7.00;;;;;20.62;52.02;100703.91;5054065;28;45484;-70
2021/07/30 01:05:45;;;;;;;;;6.00;6.00;;;;;20.58;51.81;100700.66;5050770;28;45515;-70
2021/07/30 01:08:11;;;;;;;;;8.00;7.00;;;;;20.57;52.06;100693.69;5062705;28;46107;-70
2021/07/30 01:10:36;;;;;;;;;9.00;7.25;;;;;20.57;52.42;100695.47;5055270;28;45376;-70
2021/07/30 01:13:02;;;;;;;;;6.75;6.25;;;;;20.54;52.51;100691.25;5058130;28;45381;-69
2021/07/30 01:15:27;;;;;;;;;9.25;7.00;;;;;20.52;52.53;100694.97;5050721;28;45223;-69
2021/07/30 01:17:53;;;;;;;;;7.00;6.50;;;;;20.53;52.48;100699.28;5062440;28;45389;-69
2021/07/30 01:20:23;;;;;;;;;7.50;6.25;;;;;20.51;52.56;100685.38;5074130;28;45250;-71
2021/07/30 01:22:52;;;;;;;;;6.75;6.25;;;;;20.49;52.89;100695.19;5062123;28;45445;-69
2021/07/30 01:25:18;;;;;;;;;8.75;7.50;;;;;20.48;52.41;100688.22;5052087;28;45537;-69
2021/07/30 01:27:44;;;;;;;;;8.50;6.75;;;;;20.46;52.53;100683.03;5063341;28;47375;-69
2021/07/30 01:30:10;;;;;;;;;7.75;6.25;;;;;20.46;52.57;100682.19;5072822;28;45197;-69
2021/07/30 01:32:36;;;;;;;;;9.00;7.25;;;;;20.44;52.56;100679.66;5062548;28;45374;-69
2021/07/30 01:35:03;;;;;;;;;6.50;6.50;;;;;20.43;53.15;100675.34;5062225;28;45355;-69
2021/07/30 01:37:28;;;;;;;;;10.75;8.25;;;;;20.40;53.08;100672.00;5062092;28;45907;-69
2021/07/30 01:39:54;;;;;;;;;9.00;8.00;;;;;20.41;53.26;100676.38;5062143;28;45464;-69
2021/07/30 01:42:19;;;;;;;;;6.75;5.75;;;;;20.39;53.03;100667.69;5061596;28;45291;-69
2021/07/30 01:44:44;;;;;;;;;5.00;5.00;;;;;20.38;53.41;100669.47;5062335;28;45383;-69
2021/07/30 01:47:10;;;;;;;;;30.00;25.50;;;;;20.36;53.04;100669.59;5062013;28;45370;-70
2021/07/30 01:49:35;;;;;;;;;27.00;22.00;;;;;20.33;53.53;100669.81;5062340;28;45343;-70
2021/07/30 01:52:01;;;;;;;;;6.00;5.50;;;;;20.32;53.89;100672.56;5063541;28;45620;-69
2021/07/30 01:54:26;;;;;;;;;8.75;7.00;;;;;20.32;53.54;100664.63;5080295;28;46173;-69
2021/07/30 01:56:51;;;;;;;;;6.75;5.75;;;;;20.31;53.65;100665.59;5064906;28;46375;-70
2021/07/30 01:59:17;;;;;;;;;7.75;7.75;;;;;20.30;53.46;100671.81;5062177;28;45322;-71
2021/07/30 02:01:42;;;;;;;;;6.75;6.75;;;;;20.30;53.85;100664.75;5062052;28;45457;-69
2021/07/30 02:04:07;;;;;;;;;5.00;5.00;;;;;20.27;53.81;100666.75;5062214;28;45371;-70
2021/07/30 02:06:33;;;;;;;;;7.25;6.00;;;;;20.26;53.98;100673.84;5061331;28;46185;-70
2021/07/30 02:08:59;;;;;;;;;11.25;9.50;;;;;20.25;53.74;100663.38;5062024;28;45303;-70
2021/07/30 02:11:25;;;;;;;;;7.00;6.00;;;;;20.24;53.68;100664.34;5061461;28;45423;-70
2021/07/30 02:16:35;;;;;;;;;5.00;5.00;;;;;20.21;54.07;100660.09;5061461;28;45357;-69
2021/07/30 02:19:01;;;;;;;;;8.25;7.25;;;;;20.20;54.18;100658.41;5061520;28;45275;-70
2021/07/30 02:21:26;;;;;;;;;8.00;7.00;;;;;20.18;53.59;100649.75;5061510;28;45470;-71
2021/07/30 02:23:51;;;;;;;;;7.50;7.50;;;;;20.18;54.07;100652.38;5061559;28;45512;-69
2021/07/30 02:26:16;;;;;;;;;5.75;5.00;;;;;20.18;54.14;100651.53;5064248;28;46233;-70
2021/07/30 02:28:42;;;;;;;;;7.50;6.00;;;;;20.17;53.76;100648.06;5070746;28;45288;-69
2021/07/30 02:31:07;;;;;;;;;8.25;5.75;;;;;20.16;54.03;100642.91;5061626;28;45437;-69
2021/07/30 02:33:33;;;;;;;;;11.25;7.00;;;;;20.17;53.95;100641.94;5061654;28;45472;-70
2021/07/30 02:35:58;;;;;;;;;9.25;6.50;;;;;20.15;53.91;100642.06;5060941;28;46140;-70
2021/07/30 02:38:23;;;;;;;;;14.00;7.75;;;;;20.14;53.78;100639.53;5061414;28;45602;-69
2021/07/30 02:40:49;;;;;;;;;6.75;6.75;;;;;20.12;54.47;100636.16;5061387;28;45388;-70
2021/07/30 02:43:14;;;;;;;;;10.75;8.00;;;;;20.12;54.48;100642.25;5061259;28;46144;-69
2021/07/30 02:45:39;;;;;;;;;7.25;7.25;;;;;20.12;54.44;100646.69;5064311;28;47433;-69
2021/07/30 02:48:05;;;;;;;;;7.00;6.00;;;;;20.12;54.87;100639.63;5061268;28;45436;-70
2021/07/30 02:50:30;;;;;;;;;8.75;7.75;;;;;20.13;54.14;100633.41;5061106;28;45388;-69
2021/07/30 02:52:56;;;;;;;;;6.25;6.25;;;;;20.14;54.46;100627.16;5061102;28;45661;-70
2021/07/30 02:55:21;;;;;;;;;6.75;6.00;;;;;20.15;54.68;100639.41;5059743;28;45429;-70
2021/07/30 02:57:46;;;;;;;;;7.25;6.25;;;;;20.14;54.67;100631.59;5061139;28;45243;-69
2021/07/30 03:00:13;;;;;;;;;7.00;7.00;;;;;20.16;55.07;100633.19;5061205;28;45234;-70
2021/07/30 03:02:38;;;;;;;;;7.50;6.00;;;;;20.14;54.41;100624.53;5061072;28;45468;-69
2021/07/30 03:05:04;;;;;;;;;6.75;6.50;;;;;20.14;54.57;100621.91;5060853;28;45255;-69
2021/07/30 03:07:30;;;;;;;;;7.75;7.00;;;;;20.13;54.85;100622.84;5060790;28;45590;-71
2021/07/30 03:09:55;;;;;;;;;7.50;6.25;;;;;20.12;54.86;100617.69;5075688;28;45455;-70
2021/07/30 03:12:20;;;;;;;;;12.00;9.50;;;;;20.14;54.76;100621.06;5060891;28;45473;-70
2021/07/30 03:14:46;;;;;;;;;7.50;7.00;;;;;20.11;55.13;100616.84;5060561;28;46134;-69
2021/07/30 03:17:11;;;;;;;;;7.50;6.75;;;;;20.06;55.60;100611.03;5053243;28;45382;-70
2021/07/30 03:19:37;;;;;;;;;8.75;6.50;;;;;20.03;55.71;100619.16;5060824;28;45314;-70
2021/07/30 03:22:03;;;;;;;;;6.25;6.25;;;;;20.02;55.60;100614.81;5060615;28;45495;-70
2021/07/30 03:24:28;;;;;;;;;7.25;7.25;;;;;20.03;55.68;100614.72;5060183;28;46883;-70
2021/07/30 03:26:54;;;;;;;;;7.00;7.00;;;;;20.09;55.50;100613.47;5059403;28;45397;-70
2021/07/30 03:29:21;;;;;;;;;7.00;5.00;;;;;20.11;55.43;100622.09;5058128;28;45364;-70
2021/07/30 03:31:47;;;;;;;;;6.75;6.00;;;;;20.09;55.45;100617.91;5058180;28;45461;-70
2021/07/30 03:34:14;;;;;;;;;5.00;4.75;;;;;20.08;55.82;100611.78;5058055;28;47178;-70
2021/07/30 03:36:40;;;;;;;;;6.50;6.00;;;;;20.07;56.95;100620.63;5057613;28;45896;-69
2021/07/30 03:39:05;;;;;;;;;6.75;5.00;;;;;19.99;57.15;100617.66;5057905;28;45502;-69
2021/07/30 03:41:31;;;;;;;;;6.00;6.00;;;;;19.98;56.72;100615.97;5058785;28;45398;-70
2021/07/30 03:43:56;;;;;;;;;6.25;6.25;;;;;19.94;57.39;100610.06;5060041;28;46044;-70
2021/07/30 03:46:21;;;;;;;;;7.00;5.00;;;;;19.94;57.34;100622.41;5060491;28;45247;-70
2021/07/30 03:48:47;;;;;;;;;6.75;6.25;;;;;19.90;57.63;100610.41;5060471;28;45306;-70
2021/07/30 03:51:12;;;;;;;;;6.00;6.00;;;;;19.85;57.66;100609.88;5060119;28;45398;-72
2021/07/30 03:53:38;;;;;;;;;7.50;7.50;;;;;19.81;57.44;100614.47;5059982;28;45273;-71
2021/07/30 03:56:11;;;;;;;;;7.50;6.25;;;;;19.73;58.29;100617.66;5060248;28;45268;-70
2021/07/30 03:58:36;;;;;;;;;6.50;5.75;;;;;19.63;57.94;100608.69;5060156;28;45847;-70
2021/07/30 04:01:07;;;;;;;;;5.50;5.50;;;;;19.55;58.59;100612.75;5060131;28;46237;-70
2021/07/30 04:03:32;;;;;;;;;7.00;5.50;;;;;19.51;58.67;100609.47;5059885;28;47038;-70
2021/07/30 04:05:57;;;;;;;;;6.75;5.25;;;;;19.50;58.81;100607.78;5059559;28;45117;-70
2021/07/30 04:08:22;;;;;;;;;6.50;6.50;;;;;19.46;59.02;100606.31;5059814;28;45422;-70
2021/07/30 04:10:48;;;;;;;;;5.75;5.75;;;;;19.47;60.09;100612.41;5060163;28;45598;-70
2021/07/30 04:13:13;;;;;;;;;5.50;4.50;;;;;19.43;59.32;100609.13;5058121;28;45972;-69
2021/07/30 04:15:39;;;;;;;;;6.25;6.25;;;;;19.45;59.78;100618.63;5059862;28;45243;-70
2021/07/30 04:18:05;;;;;;;;;6.50;5.75;;;;;19.41;59.07;100611.00;5059699;28;45624;-70
2021/07/30 04:20:30;;;;;;;;;6.50;6.50;;;;;19.43;59.55;100609.13;5051250;28;45427;-70
2021/07/30 04:22:55;;;;;;;;;14.00;13.00;;;;;19.45;59.41;100610.72;5056602;28;45331;-69
2021/07/30 04:25:21;;;;;;;;;7.00;7.00;;;;;19.45;59.57;100613.38;5059826;28;45256;-69
2021/07/30 04:27:46;;;;;;;;;7.75;7.00;;;;;19.47;59.23;100602.72;5059481;28;45445;-70
2021/07/30 04:30:12;;;;;;;;;11.75;10.25;;;;;19.51;59.18;100604.19;5059795;28;45375;-70
2021/07/30 04:32:37;;;;;;;;;7.00;7.00;;;;;19.51;59.74;100609.47;5059435;28;46267;-70
2021/07/30 04:35:03;;;;;;;;;9.00;7.50;;;;;19.50;59.76;100610.41;5075175;27;45776;-70
2021/07/30 04:37:28;;;;;;;;;7.00;7.00;;;;;19.52;59.69;100613.78;5059295;28;45475;-70
2021/07/30 04:39:53;;;;;;;;;7.00;5.50;;;;;19.53;59.73;100614.63;5059478;28;45330;-70
2021/07/30 04:42:19;;;;;;;;;11.00;7.00;;;;;19.53;60.11;100620.75;5059167;28;47464;-70
2021/07/30 04:44:44;;;;;;;;;6.50;6.50;;;;;19.52;59.54;100616.41;5059682;28;45282;-71
2021/07/30 04:47:09;;;;;;;;;6.50;6.25;;;;;19.47;59.91;100610.63;5059572;28;45329;-70
2021/07/30 04:49:35;;;;;;;;;6.75;5.00;;;;;19.48;59.61;100609.66;5075000;28;45619;-70
2021/07/30 04:52:00;;;;;;;;;5.25;3.75;;;;;19.50;59.74;100615.69;5058926;28;45267;-70
2021/07/30 04:54:26;;;;;;;;;8.75;8.00;;;;;19.53;59.41;100615.47;5059360;28;45312;-70
2021/07/30 04:56:51;;;;;;;;;6.00;6.00;;;;;19.56;59.68;100607.38;5058984;28;45378;-70
2021/07/30 04:59:16;;;;;;;;;5.75;5.75;;;;;19.59;59.57;100607.19;5059269;28;45591;-70
2021/07/30 05:01:42;;;;;;;;;7.25;6.50;;;;;19.65;59.65;100614.69;5059083;28;46013;-70
2021/07/30 05:04:09;;;;;;;;;7.25;6.75;;;;;19.69;58.92;100610.06;5065869;28;45671;-70
2021/07/30 05:06:35;;;;;;;;;6.50;4.50;;;;;19.71;58.75;100605.53;5056897;28;45463;-70
2021/07/30 05:09:00;;;;;;;;;7.00;5.50;;;;;19.72;58.71;100608.06;5067858;28;45340;-70
2021/07/30 05:11:25;;;;;;;;;5.25;5.25;;;;;19.66;58.30;100610.28;5060891;28;45299;-70
2021/07/30 05:13:51;;;;;;;;;9.50;6.25;;;;;19.67;58.28;100602.25;5058755;28;47603;-69
2021/07/30 05:16:16;;;;;;;;;6.50;5.50;;;;;19.69;58.25;100605.63;5059010;28;45284;-69
2021/07/30 05:18:42;;;;;;;;;8.75;6.50;;;;;19.65;58.01;100608.59;5068123;28;45263;-71
2021/07/30 05:21:09;;;;;;;;;11.00;7.75;;;;;19.67;58.27;100610.16;5061937;28;46130;-70
2021/07/30 05:23:35;;;;;;;;;6.25;5.25;;;;;19.60;57.57;100605.38;5062412;28;46038;-71
2021/07/30 05:26:01;;;;;;;;;5.25;5.25;;;;;19.62;57.94;100614.03;5062453;28;45366;-71
2021/07/30 05:28:28;;;;;;;;;5.50;5.50;;;;;19.66;57.87;100615.53;5062409;28;45245;-69
2021/07/30 05:30:58;;;;;;;;;6.75;4.75;;;;;19.67;57.62;100615.44;5062053;28;47507;-70
2021/07/30 05:33:27;;;;;;;;;7.50;7.00;;;;;19.61;57.80;100614.97;5062205;28;45342;-70
2021/07/30 05:35:54;;;;;;;;;8.75;8.25;;;;;19.62;57.38;100608.75;5061784;28;45504;-70
2021/07/30 05:38:20;;;;;;;;;6.25;6.25;;;;;19.66;57.25;100605.00;5077709;28;45444;-69
2021/07/30 05:40:45;;;;;;;;;5.25;5.00;;;;;19.70;57.57;100602.03;5061712;28;46338;-70
2021/07/30 05:43:10;;;;;;;;;10.25;6.50;;;;;19.72;56.91;100615.97;5062100;28;45427;-70
2021/07/30 05:45:36;;;;;;;;;9.75;8.50;;;;;19.67;57.14;100609.31;5062063;28;45374;-70
2021/07/30 05:48:02;;;;;;;;;9.50;7.50;;;;;19.61;57.08;100615.81;5062204;28;45518;-70
2021/07/30 05:50:27;;;;;;;;;8.25;6.25;;;;;19.63;57.33;100615.75;5061544;28;46141;-70
2021/07/30 05:52:53;;;;;;;;;8.75;7.50;;;;;19.71;57.78;100605.53;5061883;28;45311;-70
2021/07/30 05:55:18;;;;;;;;;11.75;7.75;;;;;19.62;58.26;100609.63;5061730;28;45294;-70
2021/07/30 05:57:44;;;;;;;;;7.50;6.50;;;;;19.53;58.52;100615.47;5061785;28;45310;-70
2021/07/30 06:00:10;;;;;;;;;8.75;6.75;;;;;19.51;58.08;100609.47;5061536;28;45318;-70
2021/07/30 06:02:35;;;;;;;;;6.75;5.25;;;;;19.59;58.24;100608.97;5061926;28;45272;-71
2021/07/30 06:05:01;;;;;;;;;9.00;7.25;;;;;19.69;58.50;100605.63;5061711;28;45186;-70
2021/07/30 06:07:26;;;;;;;;;7.75;7.00;;;;;19.77;58.46;100606.88;5061643;28;45232;-71
2021/07/30 06:09:51;;;;;;;;;7.50;6.75;;;;;19.80;58.10;100604.88;5075940;28;51781;-70
2021/07/30 06:12:16;;;;;;;;;12.25;6.75;;;;;19.97;58.02;100599.31;5061777;28;45413;-70
2021/07/30 06:14:44;;;;;;;;;5.75;5.75;;;;;20.05;58.03;100601.44;5061505;28;45236;-70
2021/07/30 06:17:10;;;;;;;;;9.00;6.00;;;;;20.09;58.19;100595.00;5061640;28;45227;-70
2021/07/30 06:19:36;;;;;;;;;6.00;6.00;;;;;20.07;58.29;100596.06;5061351;28;45541;-70
2021/07/30 06:22:01;;;;;;;;;10.25;6.25;;;;;20.03;58.79;100585.72;5061364;28;45271;-70
2021/07/30 06:24:26;;;;;;;;;9.75;7.50;;;;;20.10;58.36;100586.13;5060092;28;45690;-70
2021/07/30 06:26:52;;;;;;;;;10.00;5.50;;;;;20.20;58.82;100581.88;5043421;28;45480;-70
2021/07/30 06:29:17;;;;;;;;;10.75;5.75;;;;;20.32;58.10;100582.81;5044886;28;45310;-70
2021/07/30 06:31:43;;;;;;;;;9.75;7.75;;;;;20.47;57.75;100579.13;5051359;28;45436;-70
2021/07/30 06:34:08;;;;;;;;;7.25;5.75;;;;;20.51;57.61;100580.59;5050067;28;45702;-70
2021/07/30 06:36:34;;;;;;;;;7.50;5.00;;;;;20.56;57.53;100585.53;5060687;28;45587;-71
2021/07/30 06:38:59;;;;;;;;;6.50;5.25;;;;;20.64;57.77;100583.22;5060758;28;46115;-71
2021/07/30 06:41:24;;;;;;;;;10.00;6.75;;;;;20.59;57.61;100580.03;5053266;28;45446;-70
2021/07/30 06:43:50;;;;;;;;;5.50;5.50;;;;;20.49;58.18;100579.03;5055164;28;45364;-70
2021/07/30 06:46:16;;;;;;;;;5.50;5.00;;;;;20.42;58.24;100581.25;5051070;28;45453;-70
2021/07/30 06:48:41;;;;;;;;;7.00;6.00;;;;;20.39;57.89;100586.72;5060610;28;45429;-70
2021/07/30 06:51:09;;;;;;;;;6.75;5.00;;;;;20.50;58.07;100578.91;5060796;28;45409;-70
2021/07/30 06:53:35;;;;;;;;;8.00;5.50;;;;;20.63;57.67;100573.63;5060781;28;45260;-70
2021/07/30 06:56:14;;;;;;;;;7.00;6.75;;;;;20.71;57.77;100579.16;5052943;28;45249;-70
2021/07/30 06:58:40;;;;;;;;;8.00;7.25;;;;;20.78;57.95;100576.91;5044231;28;45694;-70
2021/07/30 07:01:06;;;;;;;;;6.00;6.00;;;;;20.91;57.14;100585.66;5043406;28;45287;-70
2021/07/30 07:03:32;;;;;;;;;5.00;5.00;;;;;21.01;56.92;100576.06;5049369;28;45252;-70
2021/07/30 07:05:58;;;;;;;;;7.00;6.00;;;;;21.07;56.70;100578.28;5050179;28;45315;-70
2021/07/30 07:08:23;;;;;;;;;9.00;6.00;;;;;21.18;56.68;100578.31;5059730;28;45283;-70
2021/07/30 07:10:49;;;;;;;;;5.50;4.50;;;;;21.24;55.80;100575.28;5060573;28;45381;-70
2021/07/30 07:13:16;;;;;;;;;6.25;5.75;;;;;21.31;56.40;100577.44;5060202;28;45186;-70
2021/07/30 07:15:45;;;;;;;;;6.50;6.50;;;;;21.27;56.60;100576.00;5060695;28;45490;-70
2021/07/30 07:18:11;;;;;;;;;5.75;4.50;;;;;21.31;55.96;100577.44;5060257;28;45327;-70
2021/07/30 07:20:37;;;;;;;;;6.75;5.25;;;;;21.38;56.60;100574.22;5060629;28;45679;-70
2021/07/30 07:23:03;;;;;;;;;5.50;5.50;;;;;21.41;56.65;100568.69;5060469;28;45255;-70
2021/07/30 07:25:29;;;;;;;;;7.00;6.00;;;;;21.40;56.38;100572.31;5060752;28;45270;-69
2021/07/30 07:27:54;;;;;;;;;9.75;5.00;;;;;21.40;56.66;100566.16;5060098;28;46773;-70
2021/07/30 07:30:20;;;;;;;;;6.75;6.75;;;;;21.40;57.05;100568.81;5060579;28;45217;-70
2021/07/30 07:32:45;;;;;;;;;9.00;7.00;;;;;21.51;57.30;100564.41;5060462;28;45434;-70
2021/07/30 07:35:11;;;;;;;;;9.75;7.00;;;;;21.61;57.06;100571.63;5060066;28;45504;-70
2021/07/30 07:37:36;;;;;;;;;7.75;5.25;;;;;21.64;57.35;100580.22;5059852;28;46440;-70
2021/07/30 07:40:02;;;;;;;;;12.00;6.25;;;;;21.70;57.40;100570.94;5059873;28;45351;-70
2021/07/30 07:42:27;;;;;;;;;9.00;8.50;;;;;21.86;57.16;100576.75;5060341;28;45317;-71
2021/07/30 07:44:53;;;;;;;;;7.25;7.00;;;;;22.00;57.36;100571.22;5060356;28;45525;-70
2021/07/30 07:47:18;;;;;;;;;12.25;9.00;;;;;22.14;57.10;100571.03;5060081;28;45465;-69
2021/07/30 07:49:44;;;;;;;;;8.75;6.25;;;;;22.23;56.75;100568.63;5060210;28;45300;-70
2021/07/30 07:52:09;;;;;;;;;6.25;4.50;;;;;22.35;56.70;100554.41;5059856;28;45620;-70
2021/07/30 07:54:34;;;;;;;;;9.75;7.25;;;;;22.35;56.37;100549.94;5059807;28;45468;-69
2021/07/30 07:57:02;;;;;;;;;11.25;7.00;;;;;22.26;56.79;100556.00;5059578;28;45264;-69
2021/07/30 07:59:28;;;;;;;;;6.75;6.25;;;;;22.07;57.67;100556.59;5060365;28;45294;-69
2021/07/30 08:01:53;;;;;;;;;5.00;4.00;;;;;22.03;58.29;100554.28;5060002;28;45178;-70
2021/07/30 08:04:19;;;;;;;;;5.25;5.25;;;;;21.88;59.19;100544.88;5060158;28;45357;-70
2021/07/30 08:06:44;;;;;;;;;5.50;5.50;;;;;21.77;59.38;100540.41;5059251;28;45290;-69
2021/07/30 08:09:09;;;;;;;;;10.25;7.50;;;;;21.73;59.50;100531.88;5059792;28;45357;-69
2021/07/30 08:11:35;;;;;;;;;9.00;5.25;;;;;21.63;60.72;100530.06;5059728;28;45488;-69
2021/07/30 08:14:00;;;;;;;;;7.25;5.50;;;;;21.60;60.97;100530.28;5059563;28;45513;-69
2021/07/30 08:16:26;;;;;;;;;7.00;5.50;;;;;21.61;62.08;100534.59;5059467;28;45961;-69
2021/07/30 08:18:52;;;;;;;;;4.00;4.00;;;;;21.68;61.79;100527.91;5059432;28;45390;-69
2021/07/30 08:21:18;;;;;;;;;6.25;4.75;;;;;21.84;61.37;100533.69;5059730;28;45371;-69
2021/07/30 08:23:43;;;;;;;;;6.50;4.75;;;;;21.95;61.43;100536.34;5059706;28;45324;-69
2021/07/30 08:26:08;;;;;;;;;10.00;7.50;;;;;21.95;61.15;100536.34;5059525;28;45434;-70
2021/07/30 08:28:34;;;;;;;;;9.00;5.75;;;;;22.07;60.81;100530.13;5066573;27;45318;-68
2021/07/30 08:30:59;;;;;;;;;6.25;6.25;;;;;22.28;60.45;100532.03;5056307;28;45331;-66
2021/07/30 08:33:24;;;;;;;;;8.75;6.50;;;;;22.44;60.03;100521.91;5059673;28;45310;-63
2021/07/30 08:35:50;;;;;;;;;5.75;4.50;;;;;22.66;59.77;100528.97;5058846;28;45267;-66
2021/07/30 08:38:15;;;;;;;;;5.00;5.00;;;;;22.76;58.86;100520.13;5067924;28;45258;-65
2021/07/30 08:40:41;;;;;;;;;7.25;5.50;;;;;22.69;58.78;100529.53;5062823;28;45242;-68
2021/07/30 08:43:12;;;;;;;;;9.50;6.50;;;;;22.64;58.98;100539.69;5059377;28;45238;-66
2021/07/30 08:45:37;;;;;;;;;9.75;6.00;;;;;22.68;59.37;100530.50;5059139;28;45471;-67
2021/07/30 08:48:03;;;;;;;;;8.00;7.25;;;;;22.80;58.86;100531.31;5059436;28;45303;-67
2021/07/30 08:50:29;;;;;;;;;4.50;4.50;;;;;22.93;58.82;100532.03;5059312;28;45279;-66
2021/07/30 08:52:56;;;;;;;;;6.75;4.00;;;;;22.93;59.05;100539.13;5061966;28;45564;-66
2021/07/30 08:55:31;;;;;;;;;7.50;6.50;;;;;22.93;58.97;100536.47;5062795;28;46104;-66
2021/07/30 08:57:57;;;;;;;;;6.50;6.00;;;;;22.93;58.82;100528.53;5063083;28;45181;-66
2021/07/30 09:00:23;;;;;;;;;5.00;3.75;;;;;23.05;59.09;100527.53;5062733;28;45229;-65
2021/07/30 09:02:48;;;;;;;;;4.00;4.00;;;;;23.18;58.91;100522.03;5062883;28;45432;-64
2021/07/30 09:05:36;;;;;;;;;7.25;5.25;;;;;23.26;58.08;100520.44;5059787;28;45378;-65
2021/07/30 09:08:04;;;;;;;;;4.50;4.50;;;;;23.36;58.31;100526.63;5057552;28;45311;-65
2021/07/30 09:10:36;;;;;;;;;7.75;5.25;;;;;23.54;58.02;100523.38;5062084;28;45437;-68
2021/07/30 09:13:21;;;;;;;;;3.50;2.25;;;;;23.73;57.47;100531.50;5062450;28;45341;-67
2021/07/30 09:16:07;;;;;;;;;5.00;4.00;;;;;23.77;57.11;100524.94;5062474;28;46256;-67
2021/07/30 09:18:38;;;;;;;;;7.00;6.00;;;;;23.73;57.03;100530.66;5061547;28;45374;-64
2021/07/30 09:21:15;;;;;;;;;6.50;3.00;;;;;23.73;56.93;100528.84;5054431;28;45407;-65
2021/07/30 09:23:51;;;;;;;;;7.00;4.75;;;;;23.58;57.79;100520.38;5052050;28;45485;-66
2021/07/30 09:26:47;;;;;;;;;4.00;4.00;;;;;23.70;57.67;100517.66;5062082;28;47064;-65
2021/07/30 09:29:19;;;;;;;;;5.50;5.00;;;;;23.79;57.32;100515.03;5062397;28;45295;-69
2021/07/30 09:31:48;;;;;;;;;3.00;3.00;;;;;23.89;57.19;100525.72;5062654;28;45213;-67
2021/07/30 09:34:20;;;;;;;;;5.25;4.00;;;;;23.78;56.86;100516.00;5062236;28;45326;-66
2021/07/30 09:36:45;;;;;;;;;5.00;4.00;;;;;23.71;57.50;100517.53;5062060;28;45988;-66
2021/07/30 09:39:11;;;;;;;;;6.00;6.00;;;;;23.62;57.50;100515.63;5062057;28;45227;-66
2021/07/30 09:41:36;;;;;;;;;5.50;5.00;;;;;23.56;57.75;100510.84;5078157;27;45391;-52
2021/07/30 09:44:06;;;;;;;;;6.25;5.00;;;;;23.62;57.46;100516.47;5062029;28;45412;-51
2021/07/30 09:46:32;;;;;;;;;6.00;4.25;;;;;23.66;57.89;100522.38;5062244;28;46114;-51
2021/07/30 09:48:58;;;;;;;;;9.25;6.25;;;;;23.85;57.45;100511.88;5061924;28;45274;-51
2021/07/30 09:51:24;;;;;;;;;4.50;4.00;;;;;24.24;56.33;100517.34;5062097;28;45264;-52
2021/07/30 09:53:50;;;;;;;;;6.00;5.75;;;;;24.48;55.81;100515.19;5061671;28;45723;-52
2021/07/30 09:56:16;;;;;;;;;5.75;5.00;;;;;24.73;55.04;100505.00;5061990;28;46143;-51
2021/07/30 09:58:45;;;;;;;;;4.75;2.75;;;;;24.93;54.79;100504.03;5061485;28;45342;-52
2021/07/30 10:01:15;;;;;;;;;7.25;5.00;;;;;24.95;53.77;100514.50;5062176;28;46439;-53
2021/07/30 10:03:42;;;;;;;;;4.75;4.00;;;;;24.81;54.45;100499.81;5061233;28;45450;-52
2021/07/30 10:06:10;;;;;;;;;7.00;6.50;;;;;24.76;54.36;100502.06;5061396;28;45361;-51
2021/07/30 10:08:35;;;;;;;;;6.75;4.50;;;;;24.79;53.74;100507.94;5061533;28;45629;-52
2021/07/30 10:11:01;;;;;;;;;7.25;5.25;;;;;24.54;53.90;100505.81;5060861;28;45254;-50
2021/07/30 10:13:36;;;;;;;;;4.00;4.00;;;;;24.29;54.27;100507.16;5055969;28;45470;-49
2021/07/30 10:16:06;;;;;;;;;6.75;6.25;;;;;24.28;54.64;100502.78;5052716;28;47327;-50
2021/07/30 10:18:32;;;;;;;;;6.50;3.00;;;;;24.48;54.39;100495.75;5052754;28;45620;-50
2021/07/30 10:21:01;;;;;;;;;8.50;5.75;;;;;24.56;53.83;100498.53;5051631;28;45651;-50
2021/07/30 10:23:27;;;;;;;;;3.00;3.00;;;;;24.65;52.96;100488.91;5066859;28;45311;-49
2021/07/30 10:25:57;;;;;;;;;2.25;2.25;;;;;24.63;53.23;100488.19;5065070;28;47144;-50
2021/07/30 10:28:28;;;;;;;;;4.75;3.50;;;;;24.69;51.57;100492.97;5054634;28;45346;-53
2021/07/30 10:30:55;;;;;;;;;5.75;4.25;;;;;24.65;52.67;100487.09;5061201;28;45243;-53
2021/07/30 10:33:38;;;;;;;;;7.50;4.75;;;;;24.71;51.67;100506.94;5061525;28;45192;-50
2021/07/30 10:36:06;;;;;;;;;1.00;1.00;;;;;24.42;52.52;100496.28;5060525;28;47127;-53
2021/07/30 10:38:32;;;;;;;;;3.00;3.00;;;;;24.38;52.40;100498.38;5060913;28;45489;-50
2021/07/30 10:40:57;;;;;;;;;4.75;4.00;;;;;24.42;51.77;100488.31;5060733;28;45307;-52
2021/07/30 10:43:24;;;;;;;;;2.00;2.00;;;;;24.42;51.94;100494.44;5061043;28;45247;-52
2021/07/30 10:46:07;;;;;;;;;5.50;5.50;;;;;24.25;52.49;100497.75;5060743;28;45982;-49
2021/07/30 10:48:33;;;;;;;;;5.25;3.00;;;;;24.06;53.06;100492.38;5060869;28;45337;-51
2021/07/30 10:51:00;;;;;;;;;4.50;4.50;;;;;24.01;52.99;100489.28;5059151;28;45353;-53
2021/07/30 10:53:36;;;;;;;;;5.25;3.50;;;;;23.97;52.61;100492.22;5060210;28;45503;-50
2021/07/30 10:56:03;;;;;;;;;5.25;4.25;;;;;24.21;52.39;100489.19;5060448;28;47128;-49
2021/07/30 10:58:44;;;;;;;;;11.25;9.00;;;;;24.57;51.11;100493.09;5060213;28;45747;-48
2021/07/30 11:01:11;;;;;;;;;7.25;6.00;;;;;24.94;50.77;100499.53;5060894;28;45309;-65
2021/07/30 11:03:49;;;;;;;;;3.75;2.00;;;;;25.28;49.02;100492.00;5059275;28;45357;-64
2021/07/30 11:06:18;;;;;;;;;2.25;2.00;;;;;25.38;48.47;100503.44;5060396;28;46639;-63
2021/07/30 11:11:51;;;;;;;;;4.50;2.00;;;;;25.52;43.21;100499.50;5060613;28;45325;-63
2021/07/30 11:14:17;;;;;;;;;6.25;2.25;;;;;25.46;42.92;100495.59;5030672;28;45294;-62
2021/07/30 11:17:06;;;;;;;;;2.25;2.25;;;;;25.30;41.83;100498.00;5059132;28;46088;-63
2021/07/30 11:19:36;;;;;;;;;8.75;5.25;;;;;25.03;38.51;100509.34;5059854;28;45707;-70
2021/07/30 11:22:03;;;;;;;;;2.75;2.75;;;;;24.86;39.17;100510.88;5060630;28;45461;-69
2021/07/30 11:24:29;;;;;;;;;2.00;1.75;;;;;24.69;37.83;100503.59;5060072;28;45408;-68
2021/07/30 11:26:55;;;;;;;;;1.25;1.00;;;;;24.67;38.54;100498.41;5060474;28;46928;-72